Time;durP1;ratioP1;P1;durP2;ratioP2;P2;SDS_P1;SDS_P2;PMS_P1;PMS_P2;Temp;Humidity;BMP_temperature;BMP_pressure;BME280_temperature;BME280_humidity;BME280_pressure;Samples;Min_cycle;Max_cycle;Signal;HPM_P1;HPM_P2
2023/01/13 12:15:35;;;;;;;15.73;6.77;;;9.10;58.40;;;;;;5088299;27;20664;-63
2023/01/13 12:18:19;;;;;;;9.93;6.50;;;9.00;58.60;;;;;;5066019;28;20194;-63
2023/01/13 12:21:00;;;;;;;13.77;7.67;;;9.00;59.50;;;;;;5067643;28;20177;-65
2023/01/13 12:23:50;;;;;;;10.83;6.70;;;9.00;59.30;;;;;;5069913;28;20186;-69
2023/01/13 12:26:16;;;;;;;13.13;7.47;;;9.00;59.00;;;;;;5060626;28;20189;-63
2023/01/13 12:29:11;;;;;;;11.70;6.30;;;9.00;57.00;;;;;;5069333;28;20193;-64
2023/01/13 12:31:39;;;;;;;9.80;6.10;;;9.00;58.00;;;;;;5060833;28;20452;-63
2023/01/13 12:34:39;;;;;;;13.90;7.93;;;9.20;58.20;;;;;;5070769;28;20970;-65
2023/01/13 12:37:16;;;;;;;13.07;5.90;;;9.20;57.40;;;;;;5095643;28;20190;-64
2023/01/13 12:39:49;;;;;;;10.50;5.60;;;9.20;56.60;;;;;;5069409;28;20189;-63
2023/01/13 12:45:28;;;;;;;11.60;5.70;;;9.40;57.10;;;;;;5058957;28;20192;-63
2023/01/13 12:47:55;;;;;;;11.43;6.00;;;9.40;57.00;;;;;;5068526;28;20190;-63
2023/01/13 12:50:20;;;;;;;9.27;5.80;;;9.50;58.40;;;;;;5069281;28;20186;-63
2023/01/13 12:52:53;;;;;;;10.43;5.60;;;9.50;59.50;;;;;;5069489;28;20304;-63
2023/01/13 12:55:32;;;;;;;10.60;6.47;;;9.50;59.10;;;;;;5068982;28;20204;-64
2023/01/13 12:58:09;;;;;;;11.00;6.30;;;9.50;58.50;;;;;;5057283;28;20260;-63
2023/01/13 13:00:38;;;;;;;12.90;7.17;;;9.50;59.70;;;;;;5069118;28;20277;-64
2023/01/13 13:03:10;;;;;;;10.00;6.20;;;9.40;57.80;;;;;;5067446;28;20193;-62
2023/01/13 13:05:48;;;;;;;10.47;5.97;;;9.50;57.80;;;;;;5070126;28;20217;-63
2023/01/13 13:08:34;;;;;;;9.30;5.63;;;9.40;58.60;;;;;;5066804;28;20178;-62
2023/01/13 13:11:05;;;;;;;10.73;6.13;;;9.50;58.00;;;;;;5056995;28;20285;-63
2023/01/13 13:13:46;;;;;;;10.03;5.60;;;9.40;57.10;;;;;;5065145;28;20249;-63
2023/01/13 13:16:30;;;;;;;8.30;5.33;;;9.40;56.80;;;;;;5065979;28;20199;-63
2023/01/13 13:19:17;;;;;;;10.13;5.90;;;9.40;56.90;;;;;;5067469;28;20182;-64
2023/01/13 13:22:10;;;;;;;7.20;5.23;;;9.40;56.50;;;;;;5067806;28;20186;-63
2023/01/13 13:24:35;;;;;;;11.60;6.40;;;9.40;57.00;;;;;;5059019;28;20193;-63
2023/01/13 13:27:17;;;;;;;10.73;5.67;;;9.40;56.10;;;;;;5055194;28;20252;-63
2023/01/13 13:30:00;;;;;;;6.90;4.50;;;9.40;56.90;;;;;;5055281;28;20190;-63
2023/01/13 13:32:44;;;;;;;11.03;5.90;;;9.40;57.50;;;;;;5056332;28;20198;-64
2023/01/13 13:35:33;;;;;;;9.20;5.77;;;9.40;56.60;;;;;;5057650;28;20210;-63
2023/01/13 13:46:48;;;;;;;9.67;5.50;;;9.20;56.10;;;;;;5053125;28;20257;-64
2023/01/13 13:49:19;;;;;;;9.80;5.60;;;9.20;57.50;;;;;;5043634;28;20237;-64
2023/01/13 13:52:05;;;;;;;21.47;7.13;;;9.20;57.60;;;;;;5049382;28;20298;-64
2023/01/13 13:54:31;;;;;;;11.40;5.77;;;9.20;57.90;;;;;;5051181;28;20279;-64
2023/01/13 13:56:57;;;;;;;18.93;7.83;;;9.20;57.10;;;;;;5033255;28;20191;-63
2023/01/13 13:59:26;;;;;;;11.27;6.80;;;9.20;57.70;;;;;;5037019;28;20206;-64
2023/01/13 14:02:00;;;;;;;10.93;7.40;;;9.10;58.70;;;;;;5050676;28;20277;-64
2023/01/13 14:04:31;;;;;;;8.67;6.40;;;9.00;59.00;;;;;;5081038;28;20210;-64
2023/01/13 14:06:59;;;;;;;10.70;6.07;;;9.00;58.90;;;;;;5051730;28;20262;-64
2023/01/13 14:09:30;;;;;;;8.80;6.53;;;9.00;59.20;;;;;;5055560;28;20196;-64
2023/01/13 14:12:01;;;;;;;9.47;5.13;;;9.00;59.80;;;;;;5054845;28;20179;-64
2023/01/13 14:14:27;;;;;;;10.20;5.83;;;9.00;60.80;;;;;;5086273;28;20234;-64
2023/01/13 14:16:53;;;;;;;12.67;6.93;;;9.00;60.60;;;;;;5041515;28;20183;-63
2023/01/13 14:19:33;;;;;;;16.07;7.60;;;8.90;60.70;;;;;;5086667;28;20209;-63
2023/01/13 14:22:00;;;;;;;9.97;7.07;;;8.90;61.50;;;;;;5053145;28;20183;-63
2023/01/13 14:24:26;;;;;;;12.20;7.07;;;8.80;61.90;;;;;;5054626;28;20193;-63
2023/01/13 14:27:07;;;;;;;11.97;6.63;;;8.80;61.80;;;;;;5068841;28;20202;-63
2023/01/13 14:29:32;;;;;;;12.57;6.80;;;8.70;62.30;;;;;;5035409;28;20194;-64
2023/01/13 14:31:58;;;;;;;14.13;8.10;;;8.60;63.50;;;;;;5033718;28;20598;-63
2023/01/13 14:34:27;;;;;;;16.10;8.23;;;8.60;63.80;;;;;;5059583;28;20222;-64
2023/01/13 14:36:53;;;;;;;19.07;8.87;;;8.60;64.40;;;;;;5052763;28;20179;-63
2023/01/13 14:39:24;;;;;;;16.57;8.60;;;8.50;65.00;;;;;;5034463;28;20194;-63
2023/01/13 14:41:51;;;;;;;15.50;8.40;;;8.40;65.30;;;;;;5085739;28;20273;-64
2023/01/13 14:44:25;;;;;;;13.50;8.93;;;8.40;65.30;;;;;;5049390;28;20222;-63
2023/01/13 14:46:54;;;;;;;15.87;9.70;;;8.30;65.30;;;;;;5052133;28;20186;-63
2023/01/13 14:49:40;;;;;;;12.47;8.37;;;8.30;65.80;;;;;;5046237;28;20183;-63
2023/01/13 14:52:09;;;;;;;11.77;7.00;;;8.20;65.60;;;;;;5050180;28;20186;-63
2023/01/13 14:54:49;;;;;;;12.87;7.70;;;8.20;65.60;;;;;;5052551;28;20202;-63
2023/01/13 14:57:54;;;;;;;11.37;7.83;;;8.10;66.00;;;;;;5050154;28;20175;-63
2023/01/13 15:00:24;;;;;;;13.47;7.07;;;8.10;65.90;;;;;;5004304;28;20209;-63
2023/01/13 15:03:06;;;;;;;13.60;8.20;;;8.00;66.10;;;;;;5040986;28;20179;-64
2023/01/13 15:05:34;;;;;;;12.50;7.87;;;8.00;65.80;;;;;;5046892;28;20181;-64
2023/01/13 15:08:27;;;;;;;13.63;7.40;;;7.90;65.90;;;;;;5085915;28;20186;-63
2023/01/13 15:11:06;;;;;;;15.83;7.73;;;7.80;66.00;;;;;;5082384;28;20463;-63
2023/01/13 15:13:39;;;;;;;16.90;8.47;;;7.80;65.80;;;;;;5075330;28;20325;-63
2023/01/13 15:16:21;;;;;;;16.37;8.17;;;7.80;66.00;;;;;;5052542;28;20256;-63
2023/01/13 15:18:47;;;;;;;15.17;8.60;;;7.70;67.20;;;;;;5046157;28;20236;-63
2023/01/13 15:21:14;;;;;;;12.20;7.67;;;7.60;67.50;;;;;;5053609;28;20180;-63
2023/01/13 15:23:41;;;;;;;12.83;7.67;;;7.60;67.10;;;;;;5053015;28;20182;-63
2023/01/13 15:26:28;;;;;;;11.40;7.80;;;7.60;66.60;;;;;;5038660;28;20317;-64
2023/01/13 15:28:56;;;;;;;14.87;8.17;;;7.60;66.80;;;;;;5062514;28;20425;-63
2023/01/13 15:31:22;;;;;;;9.73;6.50;;;7.60;67.40;;;;;;5067549;28;20224;-63
2023/01/13 15:33:49;;;;;;;11.13;7.80;;;7.50;67.20;;;;;;5050483;28;20206;-64
2023/01/13 15:36:27;;;;;;;13.00;7.47;;;7.50;67.90;;;;;;5053449;28;20421;-63
2023/01/13 15:38:53;;;;;;;13.73;8.80;;;7.50;67.50;;;;;;5051518;28;20436;-63
2023/01/13 15:46:36;;;;;;;15.83;8.13;;;7.40;67.80;;;;;;5052842;28;20193;-63
2023/01/13 15:46:50;;;;;;;16.63;8.00;;;7.20;68.90;;;;;;5035668;28;20459;-63
2023/01/13 15:49:34;;;;;;;20.40;7.37;;;7.20;69.80;;;;;;5075096;28;20205;-62
2023/01/13 15:52:24;;;;;;;11.43;7.47;;;7.20;69.20;;;;;;5058774;28;20421;-64
2023/01/13 15:54:50;;;;;;;10.50;6.50;;;7.10;70.10;;;;;;5051235;28;20469;-65
2023/01/13 15:57:24;;;;;;;10.17;7.33;;;7.00;70.40;;;;;;5044163;28;20420;-65
2023/01/13 15:59:52;;;;;;;10.87;6.37;;;7.00;70.10;;;;;;5049260;28;20446;-65
2023/01/13 16:02:18;;;;;;;13.03;6.93;;;7.00;69.90;;;;;;5039924;28;20179;-65
2023/01/13 16:04:44;;;;;;;12.23;6.40;;;7.00;69.90;;;;;;5043268;28;20440;-63
2023/01/13 16:07:16;;;;;;;8.87;6.93;;;7.00;70.10;;;;;;5064872;28;20189;-62
2023/01/13 16:09:42;;;;;;;10.63;6.60;;;6.90;71.20;;;;;;5045762;28;20437;-63
2023/01/13 16:12:08;;;;;;;9.23;6.20;;;6.80;71.00;;;;;;5045534;28;20421;-63
2023/01/13 16:14:34;;;;;;;12.90;7.00;;;6.80;70.80;;;;;;5047614;28;20239;-63
2023/01/13 16:17:01;;;;;;;11.20;5.97;;;6.80;70.70;;;;;;5012923;28;20183;-63
2023/01/13 16:19:27;;;;;;;7.07;4.93;;;6.80;71.50;;;;;;5069186;28;20235;-62
2023/01/13 16:21:52;;;;;;;12.70;7.57;;;6.70;71.50;;;;;;5035355;28;20441;-62
2023/01/13 16:24:18;;;;;;;14.17;8.20;;;6.70;71.10;;;;;;5049495;28;20190;-62
2023/01/13 16:26:44;;;;;;;10.10;7.10;;;6.70;70.90;;;;;;5074514;28;20193;-62
2023/01/13 16:29:11;;;;;;;10.80;7.27;;;6.60;71.10;;;;;;5037388;28;20237;-62
2023/01/13 16:31:37;;;;;;;15.27;6.67;;;6.60;71.00;;;;;;5036609;28;20197;-62
2023/01/13 16:34:05;;;;;;;8.97;6.30;;;6.60;71.10;;;;;;5061907;28;20464;-62
2023/01/13 16:36:33;;;;;;;10.73;6.17;;;6.50;71.60;;;;;;5062500;28;21212;-62
2023/01/13 16:38:59;;;;;;;13.33;6.57;;;6.50;71.60;;;;;;5079157;28;20920;-62
2023/01/13 16:41:26;;;;;;;10.37;6.47;;;6.40;71.80;;;;;;5077108;28;20440;-62
2023/01/13 16:43:52;;;;;;;12.10;6.57;;;6.40;72.30;;;;;;5068782;28;20191;-62
2023/01/13 16:46:28;;;;;;;11.00;6.30;;;6.30;72.50;;;;;;5056665;28;20445;-62
2023/01/13 16:49:00;;;;;;;13.33;6.80;;;6.20;72.50;;;;;;5036463;28;20421;-62
2023/01/13 16:51:26;;;;;;;9.83;6.13;;;6.30;72.60;;;;;;5037349;28;20453;-62
2023/01/13 16:53:52;;;;;;;10.23;6.00;;;6.20;72.70;;;;;;5029266;28;20468;-62
2023/01/13 16:56:23;;;;;;;8.87;5.30;;;6.20;73.00;;;;;;5046219;28;20206;-62
2023/01/13 16:58:51;;;;;;;8.60;5.80;;;6.20;73.10;;;;;;5056899;28;20167;-62
2023/01/13 17:01:25;;;;;;;9.10;6.23;;;6.20;73.00;;;;;;5048741;28;20447;-62
2023/01/13 17:03:51;;;;;;;8.17;6.10;;;6.20;73.00;;;;;;5080304;28;20456;-62
2023/01/13 17:06:21;;;;;;;8.87;5.33;;;6.10;72.90;;;;;;5071773;28;20955;-64
2023/01/13 17:08:47;;;;;;;7.80;5.10;;;6.10;73.10;;;;;;5080792;28;20436;-63
2023/01/13 17:11:12;;;;;;;8.57;5.50;;;6.10;73.00;;;;;;5038531;28;20464;-62
2023/01/13 17:13:39;;;;;;;9.00;5.80;;;6.00;73.50;;;;;;5041487;28;20239;-62
2023/01/13 17:16:05;;;;;;;15.07;7.30;;;6.00;73.40;;;;;;5066417;28;20178;-62
2023/01/13 17:18:31;;;;;;;6.40;5.13;;;6.00;73.30;;;;;;5038430;28;20440;-62
2023/01/13 17:20:57;;;;;;;19.50;9.33;;;6.00;73.80;;;;;;5039319;28;20435;-62
2023/01/13 17:23:23;;;;;;;16.07;9.57;;;6.00;73.90;;;;;;5038913;28;20269;-65
2023/01/13 17:25:49;;;;;;;19.43;11.20;;;5.90;73.80;;;;;;5039478;28;20501;-66
2023/01/13 17:28:15;;;;;;;28.27;13.80;;;5.90;73.90;;;;;;5038930;28;20185;-63
2023/01/13 17:30:43;;;;;;;17.63;12.00;;;5.90;74.20;;;;;;5053116;28;20193;-63
2023/01/13 17:33:08;;;;;;;19.00;11.60;;;5.90;74.20;;;;;;5058562;28;20191;-63
2023/01/13 17:35:37;;;;;;;17.97;10.80;;;5.80;74.50;;;;;;5033933;28;20494;-63
2023/01/13 17:38:03;;;;;;;22.07;12.20;;;5.70;74.60;;;;;;5030337;28;20285;-63
2023/01/13 17:40:28;;;;;;;17.30;10.93;;;5.80;74.60;;;;;;5036543;28;20543;-63
2023/01/13 17:42:56;;;;;;;16.23;9.30;;;5.80;74.70;;;;;;5053633;28;20194;-63
2023/01/13 17:45:21;;;;;;;19.60;10.10;;;5.70;74.70;;;;;;5040197;28;20270;-63
2023/01/13 17:47:47;;;;;;;13.17;8.30;;;5.70;74.70;;;;;;5049170;28;20528;-63
2023/01/13 17:50:13;;;;;;;14.73;9.30;;;5.70;75.00;;;;;;5054702;28;20209;-63
2023/01/13 17:52:38;;;;;;;14.20;7.67;;;5.60;74.80;;;;;;5037940;28;20187;-63
2023/01/13 17:55:04;;;;;;;9.10;6.47;;;5.60;75.00;;;;;;5051937;28;20308;-63
2023/01/13 17:57:30;;;;;;;7.30;5.93;;;5.60;75.10;;;;;;5084675;28;20183;-62
2023/01/13 17:59:58;;;;;;;13.07;7.37;;;5.60;75.10;;;;;;5057572;28;20433;-63
2023/01/13 18:02:24;;;;;;;14.43;7.70;;;5.60;75.00;;;;;;5032155;28;20214;-63
2023/01/13 18:04:50;;;;;;;11.07;6.63;;;5.60;75.00;;;;;;5031359;28;20440;-63
2023/01/13 18:07:16;;;;;;;11.60;8.47;;;5.50;75.30;;;;;;5050874;28;20475;-63
2023/01/13 18:09:42;;;;;;;17.87;9.57;;;5.50;75.40;;;;;;5036445;28;20480;-63
2023/01/13 18:12:08;;;;;;;16.67;9.60;;;5.50;75.50;;;;;;5041047;28;20191;-63
2023/01/13 18:14:34;;;;;;;17.40;9.17;;;5.50;75.70;;;;;;5069438;28;20234;-63
2023/01/13 18:17:00;;;;;;;12.40;8.37;;;5.50;75.70;;;;;;5032069;28;20182;-63
2023/01/13 18:27:42;;;;;;;18.00;10.37;;;5.40;75.90;;;;;;5039569;28;20440;-63
2023/01/13 18:30:08;;;;;;;16.73;9.17;;;5.30;75.70;;;;;;5070866;28;20437;-64
2023/01/13 18:32:34;;;;;;;11.73;8.20;;;5.30;75.70;;;;;;5052480;28;20280;-62
2023/01/13 18:35:04;;;;;;;14.33;8.13;;;5.30;76.00;;;;;;5031038;28;20465;-62
2023/01/13 18:37:30;;;;;;;8.47;6.60;;;5.30;76.10;;;;;;5073537;28;20479;-62
2023/01/13 18:39:56;;;;;;;8.40;6.60;;;5.30;76.00;;;;;;5037854;28;20436;-62
2023/01/13 18:45:06;;;;;;;9.30;6.90;;;5.30;76.00;;;;;;5054240;28;20656;-63
2023/01/13 18:47:32;;;;;;;11.63;7.43;;;5.20;76.20;;;;;;5075993;28;20422;-62
2023/01/13 18:49:59;;;;;;;10.53;7.10;;;5.10;76.70;;;;;;5030995;28;20558;-61
2023/01/13 18:52:25;;;;;;;9.87;6.57;;;5.10;76.50;;;;;;5044365;28;20480;-64
2023/01/13 18:54:51;;;;;;;9.37;5.60;;;5.10;76.50;;;;;;5067289;28;20587;-63
2023/01/13 18:57:17;;;;;;;10.83;6.67;;;5.10;76.50;;;;;;5046552;28;20416;-64
2023/01/13 18:59:43;;;;;;;8.57;5.40;;;5.10;76.50;;;;;;5086703;28;20417;-64
2023/01/13 19:02:15;;;;;;;8.10;5.50;;;5.00;76.60;;;;;;5037366;28;20190;-62
2023/01/13 19:04:41;;;;;;;8.27;5.33;;;5.00;76.50;;;;;;5048137;28;20422;-62
2023/01/13 19:07:10;;;;;;;6.63;5.70;;;5.00;76.50;;;;;;5025893;28;20488;-64
2023/01/13 19:09:36;;;;;;;12.00;6.13;;;5.00;76.80;;;;;;5038022;28;20646;-64
2023/01/13 19:12:04;;;;;;;8.57;5.97;;;5.00;76.80;;;;;;5077405;28;20436;-64
2023/01/13 19:14:33;;;;;;;7.53;5.53;;;5.00;76.90;;;;;;5067537;28;20543;-64
2023/01/13 19:17:08;;;;;;;10.17;6.20;;;4.90;77.10;;;;;;5040714;28;20965;-64
2023/01/13 19:19:43;;;;;;;9.97;7.20;;;4.90;77.30;;;;;;5046331;28;20421;-63
2023/01/13 19:22:10;;;;;;;12.17;8.07;;;4.80;77.00;;;;;;5076949;28;20443;-64
2023/01/13 19:24:40;;;;;;;14.80;7.93;;;4.80;77.30;;;;;;5036104;28;20564;-65
2023/01/13 19:27:07;;;;;;;11.07;7.10;;;4.80;77.60;;;;;;5035846;28;20432;-64
2023/01/13 19:29:33;;;;;;;9.90;7.40;;;4.80;77.60;;;;;;5064285;28;20452;-64
2023/01/13 19:31:59;;;;;;;7.07;5.93;;;4.80;77.90;;;;;;5050077;28;20445;-65
2023/01/13 19:34:25;;;;;;;23.30;14.57;;;4.70;78.10;;;;;;5073435;28;20310;-65
2023/01/13 19:36:52;;;;;;;16.30;9.47;;;4.70;77.90;;;;;;5033946;28;20269;-65
2023/01/13 19:39:21;;;;;;;18.93;11.93;;;4.80;77.80;;;;;;5052296;28;20448;-65
2023/01/13 19:47:18;;;;;;;16.30;9.90;;;4.80;78.10;;;;;;5053133;28;20459;-65
2023/01/13 19:49:44;;;;;;;15.57;9.00;;;4.70;77.80;;;;;;5047237;28;20421;-64
2023/01/13 19:52:11;;;;;;;13.97;9.40;;;4.80;78.00;;;;;;5076267;28;20434;-64
2023/01/13 19:54:37;;;;;;;15.07;9.60;;;4.80;78.30;;;;;;5050207;28;20551;-62
2023/01/13 19:57:04;;;;;;;9.27;6.90;;;4.90;78.00;;;;;;5070430;28;20924;-64
2023/01/13 19:59:31;;;;;;;11.00;6.50;;;4.90;77.90;;;;;;5051385;28;20449;-64
2023/01/13 20:01:59;;;;;;;9.70;5.97;;;4.90;77.60;;;;;;5035592;28;20428;-64
2023/01/13 20:04:35;;;;;;;9.80;7.00;;;5.00;77.70;;;;;;5026237;28;20574;-64
2023/01/13 20:07:02;;;;;;;8.10;6.10;;;5.00;77.40;;;;;;5016707;28;20425;-64
2023/01/13 20:09:33;;;;;;;15.10;8.13;;;5.00;77.40;;;;;;5072049;28;20547;-64
2023/01/13 20:12:07;;;;;;;11.63;6.77;;;5.00;77.20;;;;;;5051533;28;20427;-64
2023/01/13 20:14:33;;;;;;;12.13;6.27;;;5.00;77.10;;;;;;5048065;28;20579;-64
2023/01/13 20:17:00;;;;;;;8.70;5.43;;;5.00;76.00;;;;;;5043155;28;20475;-63
2023/01/13 20:19:26;;;;;;;9.53;5.43;;;5.00;76.20;;;;;;5031680;28;20175;-64
2023/01/13 20:21:52;;;;;;;7.17;5.53;;;5.00;75.90;;;;;;5078725;28;20459;-63
2023/01/13 20:24:18;;;;;;;8.07;5.87;;;5.00;76.20;;;;;;5039713;28;20457;-63
2023/01/13 20:26:44;;;;;;;10.87;6.63;;;5.00;75.60;;;;;;5078548;28;20566;-63
2023/01/13 20:29:10;;;;;;;11.47;6.30;;;5.00;75.50;;;;;;5051274;28;20186;-62
2023/01/13 20:31:38;;;;;;;12.80;7.60;;;5.00;75.90;;;;;;5025439;28;20437;-64
2023/01/13 20:34:04;;;;;;;10.30;6.53;;;5.00;74.20;;;;;;5078193;28;20508;-64
2023/01/13 20:36:36;;;;;;;9.57;5.93;;;5.00;74.50;;;;;;5035942;28;20468;-64
2023/01/13 20:39:04;;;;;;;9.20;5.17;;;5.00;74.80;;;;;;5054913;28;20416;-63
2023/01/13 20:44:15;;;;;;;8.33;5.77;;;5.00;74.90;;;;;;5055568;28;20471;-63
2023/01/13 20:46:44;;;;;;;7.60;4.43;;;5.10;75.00;;;;;;5038849;28;20429;-63
2023/01/13 20:49:11;;;;;;;9.97;4.97;;;5.10;74.50;;;;;;5055107;28;20174;-63
2023/01/13 20:51:38;;;;;;;8.10;5.40;;;5.10;74.60;;;;;;5055321;28;20428;-63
2023/01/13 20:54:04;;;;;;;8.70;4.33;;;5.10;74.70;;;;;;5042859;28;20468;-64
2023/01/13 20:56:31;;;;;;;7.90;4.50;;;5.10;74.60;;;;;;5078608;28;20409;-64
2023/01/13 20:58:57;;;;;;;7.67;4.80;;;5.10;74.30;;;;;;5055086;28;20432;-65
2023/01/13 21:01:23;;;;;;;7.47;4.40;;;5.20;74.10;;;;;;5086737;28;20424;-64
2023/01/13 21:03:49;;;;;;;5.93;3.53;;;5.20;74.30;;;;;;5051606;28;20190;-65
2023/01/13 21:06:19;;;;;;;7.20;3.63;;;5.20;74.30;;;;;;5037525;28;20429;-65
2023/01/13 21:08:46;;;;;;;5.17;3.17;;;5.30;73.90;;;;;;5054352;28;20190;-65
2023/01/13 21:11:15;;;;;;;7.27;3.77;;;5.30;73.40;;;;;;5038000;28;20499;-63
2023/01/13 21:16:25;;;;;;;6.20;2.87;;;5.30;73.40;;;;;;5075748;28;20435;-64
2023/01/13 21:19:05;;;;;;;4.83;3.77;;;5.30;73.40;;;;;;5038183;28;20462;-64
2023/01/13 21:21:31;;;;;;;6.03;3.50;;;5.30;73.60;;;;;;5054714;28;20435;-63
2023/01/13 21:23:57;;;;;;;5.53;3.03;;;5.30;73.80;;;;;;5032176;28;20520;-64
2023/01/13 21:26:23;;;;;;;6.93;5.37;;;5.30;73.60;;;;;;5038202;28;20292;-64
2023/01/13 21:28:49;;;;;;;8.40;5.33;;;5.20;73.60;;;;;;5032050;28;20186;-64
2023/01/13 21:31:15;;;;;;;9.93;6.43;;;5.10;74.10;;;;;;5076984;28;20187;-64
2023/01/13 21:33:42;;;;;;;8.90;6.40;;;5.00;74.00;;;;;;5067444;28;20448;-64
2023/01/13 21:36:12;;;;;;;7.20;5.03;;;5.10;74.30;;;;;;5038047;28;20428;-64
2023/01/13 21:38:38;;;;;;;10.87;7.00;;;5.00;74.20;;;;;;5047911;28;20417;-64
2023/01/13 21:41:06;;;;;;;7.30;5.00;;;5.00;74.40;;;;;;5080900;28;20421;-64
2023/01/13 21:49:04;;;;;;;9.57;4.87;;;4.80;75.10;;;;;;5056128;28;20840;-64
2023/01/13 21:51:31;;;;;;;6.13;5.07;;;4.80;75.30;;;;;;5069224;28;20425;-64
2023/01/13 21:53:56;;;;;;;10.20;6.20;;;4.80;75.50;;;;;;5037478;28;20457;-64
2023/01/13 21:56:23;;;;;;;8.30;6.47;;;4.90;75.80;;;;;;5051462;28;20479;-63
2023/01/13 21:58:50;;;;;;;9.63;6.50;;;4.80;76.00;;;;;;5080134;28;20178;-63
2023/01/13 22:01:16;;;;;;;10.77;7.13;;;4.80;76.30;;;;;;5053761;28;20432;-63
2023/01/13 22:06:27;;;;;;;12.33;7.17;;;4.80;76.90;;;;;;5048828;28;20703;-63
2023/01/13 22:08:58;;;;;;;8.40;6.87;;;4.80;76.50;;;;;;5036655;28;20495;-62
2023/01/13 22:11:24;;;;;;;14.00;8.60;;;4.80;76.50;;;;;;5035349;28;20179;-63
2023/01/13 22:14:08;;;;;;;16.43;10.20;;;4.80;76.50;;;;;;5061786;28;20489;-64
2023/01/13 22:16:41;;;;;;;20.80;10.30;;;4.70;76.70;;;;;;5047213;28;20182;-63
2023/01/13 22:19:08;;;;;;;20.60;10.60;;;4.70;76.90;;;;;;5007221;28;20415;-64
2023/01/13 22:21:34;;;;;;;18.93;10.60;;;4.70;76.80;;;;;;5022624;28;20459;-64
2023/01/13 22:24:00;;;;;;;15.47;9.57;;;4.70;76.90;;;;;;5005174;28;20448;-64
2023/01/13 22:26:26;;;;;;;18.10;10.57;;;4.70;77.30;;;;;;4991997;28;21253;-64
2023/01/13 22:28:53;;;;;;;24.33;12.10;;;4.60;77.60;;;;;;4998872;28;20462;-64
2023/01/13 22:31:22;;;;;;;23.43;11.67;;;4.50;77.80;;;;;;4984676;28;20436;-64
2023/01/13 22:33:51;;;;;;;19.93;10.37;;;4.50;78.00;;;;;;5005690;28;20432;-64
2023/01/13 22:36:17;;;;;;;17.60;10.17;;;4.50;78.00;;;;;;5003264;28;20425;-64
2023/01/13 22:38:43;;;;;;;20.50;10.63;;;4.50;78.00;;;;;;5007790;28;20446;-64
2023/01/13 22:41:09;;;;;;;21.13;10.63;;;4.50;77.90;;;;;;5003671;28;20438;-64
2023/01/13 22:43:36;;;;;;;15.07;8.50;;;4.50;77.90;;;;;;5014446;28;20190;-64
2023/01/13 22:46:10;;;;;;;14.00;8.57;;;4.40;77.70;;;;;;5000676;28;20192;-64
2023/01/13 22:48:37;;;;;;;13.50;7.97;;;4.30;78.40;;;;;;5000683;28;20462;-64
2023/01/13 22:51:11;;;;;;;11.27;7.07;;;4.30;78.40;;;;;;4997202;28;20449;-64
2023/01/13 22:53:37;;;;;;;12.13;7.33;;;4.40;78.50;;;;;;5000186;28;20411;-64
2023/01/13 22:56:04;;;;;;;11.73;7.33;;;4.30;78.60;;;;;;4996191;28;20450;-65
2023/01/13 22:58:30;;;;;;;13.03;7.60;;;4.30;78.90;;;;;;4996488;28;20427;-64
2023/01/13 23:01:08;;;;;;;12.93;8.03;;;4.30;78.80;;;;;;5000597;28;20496;-64
2023/01/13 23:03:34;;;;;;;11.87;8.43;;;4.40;79.00;;;;;;5014428;28;20433;-64
2023/01/13 23:06:00;;;;;;;14.07;8.77;;;4.40;79.30;;;;;;5014133;28;20477;-64
2023/01/13 23:08:26;;;;;;;14.37;8.50;;;4.40;79.50;;;;;;5011617;28;20190;-64
2023/01/13 23:11:09;;;;;;;12.60;8.77;;;4.40;79.70;;;;;;5010048;28;20199;-64
2023/01/13 23:13:38;;;;;;;13.47;8.73;;;4.40;79.90;;;;;;5001431;28;20290;-64
2023/01/13 23:16:10;;;;;;;12.20;8.87;;;4.40;79.90;;;;;;4997851;28;20981;-64
2023/01/13 23:18:36;;;;;;;10.73;8.50;;;4.40;79.80;;;;;;5008073;28;20438;-64
2023/01/13 23:21:13;;;;;;;13.47;8.20;;;4.40;80.20;;;;;;4988401;28;20442;-64
2023/01/13 23:23:39;;;;;;;14.80;9.93;;;4.30;80.20;;;;;;5010061;28;20466;-64
2023/01/13 23:26:06;;;;;;;13.67;9.37;;;4.30;80.70;;;;;;4994601;28;20474;-64
2023/01/13 23:28:32;;;;;;;13.07;9.80;;;4.30;80.60;;;;;;4987058;28;20663;-64
2023/01/13 23:30:58;;;;;;;15.20;9.87;;;4.30;80.70;;;;;;4987359;28;20450;-64
2023/01/13 23:33:24;;;;;;;15.33;10.17;;;4.30;80.80;;;;;;5010410;28;20427;-64
2023/01/13 23:35:59;;;;;;;15.60;9.33;;;4.20;80.20;;;;;;5011480;28;20218;-64
2023/01/13 23:38:25;;;;;;;14.90;8.20;;;4.10;80.20;;;;;;5040221;28;20989;-64
2023/01/13 23:40:51;;;;;;;14.03;8.87;;;4.00;80.50;;;;;;4988963;28;20538;-64
2023/01/13 23:43:16;;;;;;;11.53;7.53;;;4.00;80.20;;;;;;5000530;28;20193;-64
2023/01/13 23:45:42;;;;;;;11.83;7.80;;;3.90;80.50;;;;;;4991474;28;20447;-64
2023/01/13 23:48:08;;;;;;;13.77;7.53;;;3.90;80.50;;;;;;5011479;28;20199;-64
2023/01/13 23:50:33;;;;;;;14.13;8.43;;;3.90;80.30;;;;;;4993260;28;20192;-64
2023/01/13 23:52:59;;;;;;;13.57;7.67;;;3.70;80.50;;;;;;5006326;28;20192;-64
2023/01/13 23:55:25;;;;;;;13.20;7.93;;;3.70;80.50;;;;;;5000347;28;20227;-64
2023/01/13 23:57:51;;;;;;;15.27;9.77;;;3.60;80.70;;;;;;5009203;28;20726;-64
